| time (UTC) | temp C | wind direction | speed KPH | gust KPH | rain 1hr cm | rain 24hr cm | rain mn cm | humidity % | barometer mb |
| 20260506092524 | 10 | 0 | 0.0 | 0.0 | 0.00 | 0.03 | 0.00 | 95 | 1018.3 |
| 20260506092003 | 10 | 0 | 0.0 | 0.0 | 0.00 | 0.03 | 0.00 | 95 | 1018.3 |
| 20260506091503 | 10 | 0 | 0.0 | 0.0 | 0.00 | 0.03 | 0.00 | 95 | 1018.3 |
| 20260506091003 | 10 | 0 | 0.0 | 0.0 | 0.00 | 0.03 | 0.00 | 95 | 1018.3 |
| 20260506090524 | 10 | 0 | 0.0 | 0.0 | 0.00 | 0.03 | 0.00 | 95 | 1018.3 |
| 20260506090024 | 10 | 0 | 0.0 | 0.0 | 0.00 | 0.03 | 0.00 | 95 | 1018.3 |
| 20260506085503 | 10 | 0 | 0.0 | 0.0 | 0.00 | 0.03 | 0.00 | 95 | 1018.3 |
| 20260506085003 | 10 | 0 | 0.0 | 0.0 | 0.00 | 0.03 | 0.00 | 94 | 1018.3 |
| 20260506084503 | 10 | 0 | 0.0 | 0.0 | 0.00 | 0.03 | 0.00 | 94 | 1018.2 |
| 20260506084003 | 10 | 0 | 0.0 | 0.0 | 0.00 | 0.03 | 0.00 | 94 | 1018.2 |
| 20260506083503 | 10 | 0 | 0.0 | 0.0 | 0.00 | 0.03 | 0.00 | 94 | 1018.2 |
| 20260506083026 | 10 | 0 | 0.0 | 0.0 | 0.00 | 0.03 | 0.00 | 95 | 1018.2 |
| 20260506082504 | 10 | 0 | 0.0 | 0.0 | 0.00 | 0.03 | 0.00 | 94 | 1018.2 |
| 20260506082005 | 10 | 0 | 0.0 | 0.0 | 0.00 | 0.03 | 0.00 | 94 | 1018.2 |
| 20260506081504 | 10 | 0 | 0.0 | 0.0 | 0.00 | 0.03 | 0.00 | 94 | 1018.2 |
| 20260506081005 | 10 | 0 | 0.0 | 0.0 | 0.00 | 0.03 | 0.00 | 94 | 1018.1 |
| 20260506080526 | 10 | 0 | 0.0 | 0.0 | 0.00 | 0.03 | 0.00 | 94 | 1018.1 |
| 20260506073505 | 10 | 0 | 0.0 | 0.0 | 0.00 | 0.03 | 0.00 | 94 | 1018.0 |
| 20260506073026 | 10 | 0 | 0.0 | 0.0 | 0.00 | 0.03 | 0.00 | 94 | 1018.0 |
| 20260506072504 | 10 | 0 | 0.0 | 0.0 | 0.00 | 0.03 | 0.00 | 94 | 1018.0 |
| 20260506072005 | 10 | 0 | 0.0 | 0.0 | 0.00 | 0.03 | 0.00 | 94 | 1017.9 |
| 20260506071505 | 10 | 0 | 0.0 | 0.0 | 0.00 | 0.03 | 0.00 | 94 | 1017.8 |
| 20260506071005 | 10 | 0 | 0.0 | 0.0 | 0.00 | 0.03 | 0.00 | 94 | 1017.8 |
| 20260506070505 | 10 | 0 | 0.0 | 0.0 | 0.00 | 0.03 | 0.00 | 94 | 1017.8 |
| 20260506062505 | 10 | 0 | 0.0 | 0.0 | 0.00 | 0.08 | 0.03 | 94 | 1017.5 |
| 20260506062005 | 10 | 0 | 0.0 | 0.0 | 0.00 | 0.08 | 0.03 | 94 | 1017.5 |
| 20260506061505 | 10 | 0 | 0.0 | 0.0 | 0.00 | 0.08 | 0.03 | 94 | 1017.4 |
| 20260506061004 | 10 | 0 | 0.0 | 0.0 | 0.00 | 0.08 | 0.03 | 94 | 1017.4 |
| 20260506060525 | 10 | 0 | 0.0 | 0.0 | 0.00 | 0.08 | 0.03 | 94 | 1017.4 |
| 20260506051004 | 10 | 187 | 0.0 | 1.6 | 0.00 | 0.15 | 0.03 | 93 | 1016.8 |
| 20260506050504 | 10 | 187 | 0.0 | 1.6 | 0.00 | 0.15 | 0.03 | 92 | 1016.9 |
| 20260506045005 | 11 | 0 | 0.0 | 0.0 | 0.00 | 0.15 | 0.03 | 93 | 1016.9 |
| 20260506044504 | 11 | 0 | 0.0 | 0.0 | 0.00 | 0.15 | 0.03 | 93 | 1016.8 |
| 20260506044005 | 11 | 0 | 0.0 | 0.0 | 0.00 | 0.15 | 0.03 | 93 | 1016.8 |
| 20260506043525 | 11 | 0 | 0.0 | 0.0 | 0.00 | 0.15 | 0.03 | 93 | 1016.8 |
| 20260506043004 | 11 | 0 | 0.0 | 0.0 | 0.00 | 0.15 | 0.03 | 93 | 1016.7 |
| 20260506042504 | 11 | 0 | 0.0 | 0.0 | 0.00 | 0.15 | 0.03 | 93 | 1016.7 |
| 20260506042004 | 11 | 0 | 0.0 | 0.0 | 0.00 | 0.15 | 0.03 | 93 | 1016.7 |
| 20260506041504 | 11 | 0 | 0.0 | 0.0 | 0.00 | 0.15 | 0.03 | 93 | 1016.6 |
| 20260506041025 | 11 | 0 | 0.0 | 0.0 | 0.00 | 0.15 | 0.03 | 92 | 1016.6 |
| 20260506040526 | 11 | 0 | 0.0 | 0.0 | 0.00 | 0.15 | 0.03 | 92 | 1016.6 |
| 20260506040025 | 11 | 0 | 0.0 | 0.0 | 0.00 | 0.18 | 0.03 | 92 | 1016.5 |
| 20260506035504 | 11 | 0 | 0.0 | 0.0 | 0.00 | 0.18 | 0.03 | 92 | 1016.4 |
| 20260506035004 | 11 | 0 | 0.0 | 0.0 | 0.00 | 0.23 | 0.03 | 92 | 1016.4 |
| 20260506034504 | 11 | 0 | 0.0 | 0.0 | 0.00 | 0.23 | 0.03 | 92 | 1016.3 |
| 20260506034005 | 11 | 0 | 0.0 | 0.0 | 0.00 | 0.25 | 0.03 | 92 | 1016.2 |
| 20260506033504 | 11 | 0 | 0.0 | 0.0 | 0.00 | 0.25 | 0.03 | 92 | 1016.0 |
| 20260506033005 | 11 | 0 | 0.0 | 0.0 | 0.00 | 0.28 | 0.03 | 92 | 1015.9 |
| 20260506032504 | 11 | 0 | 0.0 | 0.0 | 0.00 | 0.28 | 0.03 | 92 | 1015.8 |
| 20260506032004 | 11 | 0 | 0.0 | 0.0 | 0.00 | 0.36 | 0.03 | 92 | 1015.8 |
| 20260506031505 | 11 | 0 | 0.0 | 0.0 | 0.00 | 0.43 | 0.03 | 92 | 1015.8 |
| 20260506031004 | 11 | 0 | 0.0 | 0.0 | 0.00 | 0.46 | 0.03 | 91 | 1015.5 |
| 20260506030505 | 11 | 188 | 0.0 | 1.6 | 0.00 | 0.51 | 0.03 | 92 | 1015.5 |
| 20260506030005 | 11 | 187 | 0.0 | 1.6 | 0.00 | 0.53 | 0.03 | 92 | 1015.5 |
| 20260506025504 | 11 | 187 | 0.0 | 1.6 | 0.00 | 0.58 | 0.03 | 91 | 1015.7 |
| 20260506025004 | 11 | 0 | 0.0 | 0.0 | 0.00 | 0.61 | 0.03 | 91 | 1015.8 |
| 20260506024504 | 11 | 0 | 0.0 | 0.0 | 0.00 | 0.66 | 0.03 | 91 | 1015.6 |
| 20260506024005 | 11 | 0 | 0.0 | 0.0 | 0.00 | 0.66 | 0.03 | 91 | 1015.5 |
| 20260506023504 | 11 | 0 | 0.0 | 0.0 | 0.00 | 0.69 | 0.03 | 91 | 1015.6 |
| 20260506023004 | 11 | 0 | 0.0 | 0.0 | 0.00 | 0.71 | 0.03 | 91 | 1015.5 |
| 20260506022504 | 11 | 0 | 0.0 | 0.0 | 0.00 | 0.76 | 0.03 | 90 | 1015.3 |
| 20260506022004 | 11 | 0 | 0.0 | 0.0 | 0.00 | 0.79 | 0.03 | 90 | 1015.3 |
| 20260506021505 | 11 | 0 | 0.0 | 0.0 | 0.00 | 0.86 | 0.03 | 90 | 1015.2 |
| 20260506021004 | 11 | 0 | 0.0 | 0.0 | 0.00 | 0.91 | 0.03 | 90 | 1015.2 |
| 20260506020504 | 11 | 0 | 0.0 | 0.0 | 0.00 | 0.94 | 0.03 | 90 | 1015.0 |
| 20260506020004 | 11 | 187 | 0.0 | 1.6 | 0.00 | 0.97 | 0.03 | 89 | 1014.8 |
| 20260506015504 | 11 | 187 | 0.0 | 1.6 | 0.00 | 0.97 | 0.03 | 89 | 1014.7 |
| 20260506015004 | 11 | 187 | 0.0 | 1.6 | 0.00 | 1.02 | 0.03 | 88 | 1014.9 |
| 20260506014504 | 12 | 194 | 0.0 | 3.2 | 0.00 | 1.02 | 0.03 | 88 | 1015.0 |
| 20260506014004 | 12 | 194 | 0.0 | 3.2 | 0.00 | 1.02 | 0.03 | 88 | 1014.9 |
| 20260506013504 | 12 | 0 | 0.0 | 0.0 | 0.00 | 1.02 | 0.03 | 89 | 1014.7 |
| 20260506013004 | 12 | 0 | 0.0 | 0.0 | 0.00 | 1.02 | 0.03 | 89 | 1014.7 |
| 20260506012525 | 12 | 202 | 0.0 | 1.6 | 0.00 | 1.02 | 0.03 | 89 | 1014.7 |
| 20260506012004 | 12 | 176 | 0.0 | 1.6 | 0.00 | 1.02 | 0.03 | 88 | 1014.8 |
| 20260506011505 | 12 | 32 | 0.0 | 3.2 | 0.00 | 1.02 | 0.03 | 89 | 1014.8 |
| 20260506011004 | 12 | 20 | 0.0 | 3.2 | 0.00 | 1.04 | 0.03 | 89 | 1014.7 |
| 20260506010504 | 11 | 287 | 0.0 | 4.8 | 0.00 | 1.09 | 0.03 | 90 | 1014.7 |
| 20260506010004 | 11 | 197 | 0.0 | 4.8 | 0.00 | 1.12 | 0.03 | 89 | 1014.6 |
| 20260506005504 | 11 | 160 | 0.0 | 3.2 | 0.00 | 1.12 | 0.03 | 88 | 1014.7 |
| 20260506005004 | 11 | 168 | 0.0 | 1.6 | 0.00 | 1.19 | 0.03 | 89 | 1014.7 |
| 20260506004504 | 11 | 163 | 0.0 | 1.6 | 0.00 | 1.22 | 0.03 | 90 | 1014.7 |
| 20260506004025 | 11 | 163 | 0.0 | 1.6 | 0.00 | 1.30 | 0.03 | 89 | 1014.7 |
| 20260506003504 | 11 | 124 | 0.0 | 1.6 | 0.00 | 1.35 | 0.03 | 91 | 1014.5 |
| 20260506003004 | 11 | 124 | 0.0 | 1.6 | 0.00 | 1.37 | 0.03 | 91 | 1014.3 |
| 20260506002504 | 11 | 0 | 0.0 | 0.0 | 0.00 | 1.37 | 0.03 | 90 | 1014.5 |
| 20260506002025 | 11 | 134 | 0.0 | 1.6 | 0.00 | 1.40 | 0.03 | 91 | 1014.6 |
| 20260506001504 | 11 | 64 | 0.0 | 3.2 | 0.00 | 1.45 | 0.03 | 91 | 1014.7 |
| 20260506001004 | 11 | 58 | 0.0 | 3.2 | 0.00 | 1.47 | 0.03 | 92 | 1014.6 |
| 20260506000525 | 11 | 22 | 0.0 | 1.6 | 0.00 | 1.55 | 0.03 | 91 | 1014.6 |
| 20260506000004 | 11 | 354 | 0.0 | 1.6 | 0.00 | 1.57 | 0.03 | 91 | 1014.5 |
| 20260505235504 | 11 | 339 | 0.0 | 1.6 | 0.00 | 1.63 | 0.03 | 90 | 1014.5 |
| 20260505235004 | 11 | 333 | 0.0 | 1.6 | 0.00 | 1.63 | 0.03 | 91 | 1014.6 |
| 20260505234504 | 11 | 332 | 0.0 | 3.2 | 0.00 | 1.65 | 0.03 | 91 | 1014.6 |
| 20260505234004 | 11 | 339 | 1.6 | 4.8 | 0.00 | 1.65 | 0.03 | 91 | 1014.5 |
| 20260505233504 | 11 | 341 | 1.6 | 6.4 | 0.00 | 1.65 | 0.03 | 91 | 1014.4 |
| 20260505233004 | 11 | 335 | 1.6 | 6.4 | 0.00 | 1.70 | 0.03 | 90 | 1014.5 |
| 20260505232504 | 11 | 314 | 0.0 | 4.8 | 0.00 | 1.70 | 0.03 | 90 | 1014.4 |
| 20260505232025 | 11 | 321 | 0.0 | 4.8 | 0.00 | 1.70 | 0.03 | 90 | 1014.4 |
| 20260505231504 | 11 | 324 | 0.0 | 4.8 | 0.00 | 1.70 | 0.03 | 90 | 1014.6 |
| 20260505231004 | 11 | 319 | 0.0 | 4.8 | 0.00 | 1.70 | 0.03 | 91 | 1014.7 |
| 20260505230504 | 11 | 325 | 0.0 | 3.2 | 0.00 | 1.70 | 0.03 | 90 | 1014.6 |
| 20260505230004 | 11 | 333 | 0.0 | 3.2 | 0.00 | 1.70 | 0.03 | 90 | 1014.7 |
| 20260505225504 | 11 | 316 | 0.0 | 3.2 | 0.00 | 1.70 | 0.03 | 90 | 1014.7 |
| 20260505225004 | 11 | 300 | 0.0 | 4.8 | 0.00 | 1.70 | 0.03 | 89 | 1014.6 |
| 20260505224504 | 11 | 297 | 0.0 | 4.8 | 0.00 | 1.70 | 0.03 | 90 | 1014.6 |
| 20260505224004 | 11 | 272 | 1.6 | 4.8 | 0.00 | 1.70 | 0.03 | 89 | 1014.6 |
| 20260505223504 | 11 | 280 | 1.6 | 4.8 | 0.00 | 1.70 | 0.03 | 88 | 1014.6 |
| 20260505223004 | 11 | 322 | 0.0 | 4.8 | 0.00 | 1.70 | 0.03 | 89 | 1014.7 |
| 20260505222525 | 11 | 315 | 1.6 | 4.8 | 0.00 | 1.70 | 0.03 | 88 | 1014.7 |
| 20260505222004 | 11 | 301 | 0.0 | 4.8 | 0.00 | 1.70 | 0.03 | 89 | 1014.7 |
| 20260505221504 | 11 | 241 | 0.0 | 1.6 | 0.00 | 1.70 | 0.03 | 89 | 1014.7 |
| 20260505221004 | 11 | 0 | 0.0 | 0.0 | 0.00 | 1.70 | 0.03 | 89 | 1014.6 |
| 20260505220504 | 11 | 301 | 0.0 | 1.6 | 0.00 | 1.70 | 0.03 | 89 | 1014.6 |
| 20260505220004 | 11 | 303 | 1.6 | 6.4 | 0.00 | 1.70 | 0.03 | 89 | 1014.7 |
| 20260505215504 | 11 | 308 | 1.6 | 6.4 | 0.00 | 1.70 | 0.03 | 88 | 1014.7 |
| 20260505215004 | 11 | 310 | 0.0 | 3.2 | 0.00 | 1.70 | 0.03 | 90 | 1014.8 |
| 20260505214525 | 11 | 319 | 1.6 | 4.8 | 0.00 | 1.70 | 0.03 | 90 | 1014.7 |
| 20260505214025 | 11 | 301 | 1.6 | 4.8 | 0.00 | 1.70 | 0.03 | 89 | 1014.7 |
| 20260505213504 | 11 | 301 | 1.6 | 4.8 | 0.00 | 1.70 | 0.03 | 88 | 1014.7 |
| 20260505213004 | 11 | 303 | 1.6 | 4.8 | 0.00 | 1.70 | 0.03 | 89 | 1014.8 |
| 20260505212504 | 11 | 291 | 1.6 | 4.8 | 0.00 | 1.70 | 0.03 | 89 | 1014.9 |
| 20260505212004 | 11 | 353 | 0.0 | 4.8 | 0.00 | 1.70 | 0.03 | 89 | 1014.9 |
| 20260505211504 | 11 | 319 | 1.6 | 4.8 | 0.00 | 1.70 | 0.03 | 89 | 1014.8 |
| 20260505211004 | 11 | 310 | 1.6 | 4.8 | 0.00 | 1.70 | 0.03 | 89 | 1014.8 |
| 20260505210504 | 11 | 295 | 1.6 | 6.4 | 0.00 | 1.70 | 0.03 | 88 | 1014.8 |
| 20260505210025 | 11 | 298 | 1.6 | 6.4 | 0.00 | 1.70 | 0.03 | 88 | 1014.7 |
| 20260505205504 | 11 | 331 | 1.6 | 6.4 | 0.00 | 1.70 | 0.03 | 87 | 1014.7 |
| 20260505205004 | 11 | 345 | 1.6 | 4.8 | 0.00 | 1.70 | 0.03 | 89 | 1014.7 |
| 20260505204504 | 11 | 332 | 1.6 | 8.0 | 0.00 | 1.70 | 0.03 | 89 | 1014.6 |
| 20260505204004 | 11 | 317 | 1.6 | 8.0 | 0.00 | 1.70 | 0.03 | 88 | 1014.6 |
| 20260505203504 | 11 | 289 | 1.6 | 6.4 | 0.00 | 1.70 | 0.03 | 87 | 1014.6 |
| 20260505203004 | 11 | 278 | 3.2 | 6.4 | 0.00 | 1.70 | 0.03 | 88 | 1014.6 |
| 20260505202504 | 11 | 282 | 1.6 | 6.4 | 0.00 | 1.70 | 0.03 | 87 | 1014.6 |
| 20260505202004 | 11 | 309 | 1.6 | 4.8 | 0.00 | 1.70 | 0.03 | 88 | 1014.6 |
| 20260505201504 | 11 | 315 | 1.6 | 4.8 | 0.00 | 1.70 | 0.03 | 87 | 1014.6 |
| 20260505201004 | 11 | 337 | 1.6 | 6.4 | 0.00 | 1.70 | 0.03 | 89 | 1014.7 |
| 20260505200504 | 11 | 335 | 1.6 | 6.4 | 0.00 | 1.70 | 0.03 | 89 | 1014.7 |
| 20260505200004 | 11 | 331 | 1.6 | 4.8 | 0.00 | 1.70 | 0.03 | 90 | 1014.7 |
| 20260505195525 | 11 | 318 | 1.6 | 6.4 | 0.00 | 1.70 | 0.03 | 88 | 1014.7 |
| 20260505195025 | 11 | 290 | 1.6 | 6.4 | 0.00 | 1.70 | 0.03 | 89 | 1014.8 |
| 20260505194504 | 11 | 278 | 0.0 | 4.8 | 0.00 | 1.73 | 0.03 | 90 | 1014.7 |
| 20260505194004 | 11 | 308 | 0.0 | 3.2 | 0.00 | 1.73 | 0.03 | 90 | 1014.7 |
| 20260505193504 | 11 | 322 | 0.0 | 3.2 | 0.00 | 1.73 | 0.03 | 90 | 1014.7 |
| 20260505193025 | 11 | 321 | 0.0 | 4.8 | 0.00 | 1.73 | 0.03 | 90 | 1014.7 |
| 20260505192504 | 11 | 326 | 0.0 | 4.8 | 0.00 | 1.73 | 0.03 | 90 | 1014.7 |
| 20260505192025 | 11 | 332 | 0.0 | 3.2 | 0.00 | 1.73 | 0.03 | 90 | 1014.7 |
| 20260505191503 | 11 | 314 | 0.0 | 4.8 | 0.00 | 1.73 | 0.03 | 91 | 1014.7 |
| 20260505191004 | 11 | 327 | 0.0 | 4.8 | 0.00 | 1.73 | 0.03 | 89 | 1014.6 |
| 20260505190504 | 11 | 335 | 0.0 | 1.6 | 0.00 | 1.78 | 0.03 | 90 | 1014.6 |
| 20260505190004 | 10 | 335 | 1.6 | 4.8 | 0.00 | 1.80 | 0.03 | 90 | 1014.5 |
| 20260505185525 | 10 | 332 | 1.6 | 4.8 | 0.00 | 1.83 | 0.03 | 90 | 1014.4 |
| 20260505185004 | 10 | 316 | 0.0 | 3.2 | 0.00 | 1.88 | 0.03 | 91 | 1014.5 |
| 20260505184504 | 10 | 307 | 1.6 | 4.8 | 0.00 | 1.91 | 0.03 | 90 | 1014.5 |
| 20260505184004 | 10 | 285 | 1.6 | 6.4 | 0.00 | 1.96 | 0.03 | 91 | 1014.6 |
| 20260505183504 | 10 | 268 | 1.6 | 6.4 | 0.00 | 1.96 | 0.03 | 91 | 1014.5 |
| 20260505183003 | 10 | 271 | 1.6 | 11.3 | 0.00 | 1.96 | 0.03 | 92 | 1014.5 |
| 20260505182505 | 10 | 270 | 3.2 | 12.9 | 0.00 | 1.96 | 0.03 | 91 | 1014.5 |
| 20260505182004 | 10 | 270 | 3.2 | 12.9 | 0.00 | 1.98 | 0.03 | 90 | 1014.4 |
| 20260505181503 | 10 | 264 | 1.6 | 4.8 | 0.00 | 1.98 | 0.03 | 90 | 1014.4 |
| 20260505181004 | 10 | 266 | 1.6 | 4.8 | 0.00 | 2.03 | 0.03 | 90 | 1014.4 |
| 20260505180525 | 10 | 295 | 0.0 | 3.2 | 0.00 | 2.08 | 0.03 | 91 | 1014.4 |
| 20260505180004 | 10 | 308 | 0.0 | 3.2 | 0.00 | 2.08 | 0.03 | 91 | 1014.4 |
| 20260505175503 | 10 | 313 | 0.0 | 3.2 | 0.00 | 2.08 | 0.03 | 91 | 1014.4 |
| 20260505175004 | 10 | 312 | 0.0 | 4.8 | 0.00 | 2.08 | 0.03 | 90 | 1014.4 |
| 20260505174504 | 10 | 306 | 0.0 | 4.8 | 0.00 | 2.08 | 0.03 | 92 | 1014.4 |
| 20260505174003 | 10 | 296 | 0.0 | 1.6 | 0.00 | 2.08 | 0.03 | 92 | 1014.4 |
| 20260505173525 | 10 | 303 | 0.0 | 1.6 | 0.00 | 2.08 | 0.03 | 92 | 1014.4 |
| 20260505173025 | 10 | 319 | 0.0 | 3.2 | 0.00 | 2.08 | 0.03 | 92 | 1014.3 |
| 20260505172525 | 10 | 314 | 0.0 | 3.2 | 0.00 | 2.08 | 0.03 | 92 | 1014.3 |
| 20260505172004 | 10 | 289 | 0.0 | 1.6 | 0.00 | 2.08 | 0.03 | 91 | 1014.3 |
| 20260505171504 | 10 | 288 | 0.0 | 1.6 | 0.00 | 2.08 | 0.03 | 91 | 1014.3 |
| 20260505171004 | 9 | 300 | 0.0 | 3.2 | 0.00 | 2.08 | 0.03 | 93 | 1014.3 |
| 20260505170504 | 9 | 301 | 0.0 | 3.2 | 0.00 | 2.08 | 0.03 | 91 | 1014.3 |
| 20260505170004 | 9 | 272 | 1.6 | 4.8 | 0.00 | 2.08 | 0.03 | 93 | 1014.3 |
| 20260505165504 | 9 | 277 | 1.6 | 6.4 | 0.00 | 2.08 | 0.03 | 93 | 1014.3 |
| 20260505165025 | 9 | 287 | 1.6 | 6.4 | 0.00 | 2.08 | 0.03 | 92 | 1014.2 |
| 20260505164503 | 9 | 287 | 1.6 | 4.8 | 0.00 | 2.08 | 0.03 | 93 | 1014.2 |
| 20260505164004 | 9 | 278 | 3.2 | 6.4 | 0.00 | 2.08 | 0.03 | 93 | 1014.2 |
| 20260505163504 | 9 | 288 | 3.2 | 8.0 | 0.00 | 2.08 | 0.03 | 92 | 1014.2 |
| 20260505163004 | 9 | 317 | 3.2 | 8.0 | 0.00 | 2.08 | 0.03 | 92 | 1014.1 |
| 20260505162504 | 9 | 334 | 1.6 | 6.4 | 0.00 | 2.08 | 0.03 | 94 | 1014.1 |
| 20260505162003 | 8 | 300 | 3.2 | 4.8 | 0.00 | 2.08 | 0.03 | 94 | 1014.0 |
| 20260505161504 | 8 | 277 | 3.2 | 4.8 | 0.00 | 2.08 | 0.03 | 93 | 1014.0 |
| 20260505161004 | 8 | 283 | 1.6 | 4.8 | 0.00 | 2.08 | 0.03 | 93 | 1014.0 |
| 20260505160525 | 8 | 292 | 1.6 | 4.8 | 0.00 | 2.08 | 0.03 | 93 | 1014.0 |
| 20260505153003 | 8 | 313 | 1.6 | 4.8 | 0.00 | 2.08 | 0.03 | 94 | 1013.9 |
| 20260505152525 | 8 | 310 | 0.0 | 4.8 | 0.00 | 2.08 | 0.03 | 94 | 1013.9 |
| 20260505152003 | 8 | 301 | 0.0 | 1.6 | 0.00 | 2.08 | 0.03 | 95 | 1013.8 |
| 20260505151504 | 8 | 306 | 0.0 | 4.8 | 0.00 | 2.08 | 0.03 | 95 | 1013.8 |
| 20260505151003 | 8 | 307 | 0.0 | 4.8 | 0.00 | 2.08 | 0.03 | 95 | 1013.7 |
| 20260505150503 | 8 | 299 | 0.0 | 3.2 | 0.00 | 2.08 | 0.03 | 95 | 1013.6 |
| 20260505140503 | 8 | 10 | 0.0 | 1.6 | 0.00 | 2.08 | 0.03 | 95 | 1013.1 |
| 20260505125003 | 8 | 0 | 0.0 | 0.0 | 0.00 | 2.08 | 0.03 | 95 | 1012.9 |
| 20260505124503 | 8 | 0 | 0.0 | 0.0 | 0.00 | 2.08 | 0.03 | 95 | 1013.0 |
| 20260505124003 | 8 | 0 | 0.0 | 0.0 | 0.00 | 2.08 | 0.03 | 95 | 1013.0 |
| 20260505123524 | 8 | 0 | 0.0 | 0.0 | 0.00 | 2.08 | 0.03 | 95 | 1012.9 |
| 20260505123003 | 8 | 0 | 0.0 | 0.0 | 0.00 | 2.08 | 0.03 | 95 | 1012.9 |
| 20260505122503 | 8 | 0 | 0.0 | 0.0 | 0.00 | 2.08 | 0.03 | 95 | 1012.9 |
| 20260505122004 | 8 | 0 | 0.0 | 0.0 | 0.00 | 2.08 | 0.03 | 95 | 1012.8 |
| 20260505121503 | 8 | 0 | 0.0 | 0.0 | 0.00 | 2.08 | 0.03 | 95 | 1012.8 |
| 20260505121024 | 7 | 0 | 0.0 | 0.0 | 0.00 | 2.08 | 0.03 | 95 | 1012.8 |
| 20260505120503 | 8 | 0 | 0.0 | 0.0 | 0.03 | 2.08 | 0.03 | 95 | 1012.8 |
| 20260505120004 | 8 | 0 | 0.0 | 0.0 | 0.03 | 2.08 | 0.03 | 95 | 1012.8 |
| 20260505115525 | 8 | 0 | 0.0 | 0.0 | 0.03 | 2.08 | 0.03 | 95 | 1012.8 |
| 20260505115003 | 8 | 0 | 0.0 | 0.0 | 0.03 | 2.08 | 0.03 | 95 | 1012.9 |
| 20260505114503 | 8 | 0 | 0.0 | 0.0 | 0.03 | 2.08 | 0.03 | 95 | 1012.9 |
| 20260505114024 | 8 | 0 | 0.0 | 0.0 | 0.03 | 2.08 | 0.03 | 95 | 1012.9 |
| 20260505113503 | 8 | 0 | 0.0 | 0.0 | 0.03 | 2.08 | 0.03 | 95 | 1012.8 |
| 20260505113004 | 7 | 0 | 0.0 | 0.0 | 0.03 | 2.08 | 0.03 | 95 | 1012.8 |
| 20260505112503 | 8 | 0 | 0.0 | 0.0 | 0.03 | 2.08 | 0.03 | 95 | 1012.9 |
| 20260505112004 | 8 | 0 | 0.0 | 0.0 | 0.03 | 2.08 | 0.03 | 95 | 1012.9 |
| 20260505111524 | 8 | 0 | 0.0 | 0.0 | 0.03 | 2.08 | 0.03 | 95 | 1012.9 |
| 20260505111003 | 7 | 0 | 0.0 | 0.0 | 0.03 | 2.08 | 0.03 | 95 | 1012.9 |
| 20260505110503 | 7 | 0 | 0.0 | 0.0 | 0.00 | 2.06 | 0.00 | 95 | 1012.9 |
| 20260505102004 | 7 | 0 | 0.0 | 0.0 | 0.00 | 2.06 | 0.00 | 95 | 1012.9 |
| 20260505101503 | 7 | 0 | 0.0 | 0.0 | 0.00 | 2.06 | 0.00 | 95 | 1012.9 |
| 20260505101003 | 7 | 0 | 0.0 | 0.0 | 0.00 | 2.06 | 0.00 | 95 | 1013.0 |
| 20260505100503 | 7 | 0 | 0.0 | 0.0 | 0.00 | 2.06 | 0.00 | 95 | 1012.9 |
| 20260505100003 | 7 | 0 | 0.0 | 0.0 | 0.00 | 2.06 | 0.00 | 95 | 1013.0 |
| 20260505095504 | 7 | 0 | 0.0 | 0.0 | 0.00 | 2.06 | 0.00 | 95 | 1013.0 |
| 20260505095003 | 7 | 0 | 0.0 | 0.0 | 0.00 | 2.06 | 0.00 | 95 | 1013.0 |
| 20260505094503 | 7 | 0 | 0.0 | 0.0 | 0.00 | 2.06 | 0.00 | 95 | 1013.1 |
| 20260505094003 | 7 | 64 | 0.0 | 1.6 | 0.00 | 2.06 | 0.00 | 95 | 1013.1 |
| 20260505093503 | 7 | 56 | 0.0 | 1.6 | 0.00 | 2.06 | 0.00 | 95 | 1013.2 |
| 20260505093004 | 7 | 53 | 0.0 | 1.6 | 0.00 | 2.06 | 0.00 | 95 | 1013.2 |